createdAt,value
2018-05-21T00:01:36.824Z,18.04
2018-05-21T00:04:06.514Z,17.90
2018-05-21T00:06:35.325Z,17.88
2018-05-21T00:09:05.089Z,17.57
2018-05-21T00:11:34.703Z,17.88
2018-05-21T00:14:03.474Z,17.69
2018-05-21T00:16:32.440Z,17.43
2018-05-21T00:19:01.402Z,17.64
2018-05-21T00:21:30.326Z,17.72
2018-05-21T00:23:59.113Z,17.07
2018-05-21T00:26:27.864Z,17.55
2018-05-21T00:28:56.744Z,17.61
2018-05-21T00:31:26.095Z,17.60
2018-05-21T00:33:54.975Z,16.95
2018-05-21T00:36:24.008Z,17.05
2018-05-21T00:38:52.793Z,17.31
2018-05-21T00:41:21.620Z,17.49
2018-05-21T00:43:50.427Z,17.57
2018-05-21T00:46:19.370Z,17.40
2018-05-21T00:48:48.156Z,17.13
2018-05-21T00:51:16.941Z,17.33
2018-05-21T00:53:46.478Z,17.56
2018-05-21T00:56:15.294Z,17.77
2018-05-21T00:58:44.149Z,17.64
2018-05-21T01:01:12.959Z,18.06
2018-05-21T01:03:42.320Z,18.23
2018-05-21T01:06:12.151Z,18.35
2018-05-21T01:08:42.315Z,18.23
2018-05-21T01:11:11.073Z,18.26
2018-05-21T01:13:39.825Z,17.93
2018-05-21T01:16:08.610Z,17.59
2018-05-21T01:18:37.364Z,17.59
2018-05-21T01:21:06.133Z,17.57
2018-05-21T01:23:34.916Z,17.71
2018-05-21T01:26:03.788Z,17.64
2018-05-21T01:28:32.696Z,18.12
2018-05-21T01:31:01.526Z,18.18
2018-05-21T01:33:31.097Z,17.63
2018-05-21T01:35:59.840Z,17.87
2018-05-21T01:38:29.440Z,17.77
2018-05-21T01:40:58.197Z,17.78
2018-05-21T01:43:27.433Z,17.56
2018-05-21T01:45:56.234Z,17.31
2018-05-21T01:48:25.770Z,17.15
2018-05-21T01:50:56.051Z,17.15
2018-05-21T01:53:24.852Z,16.83
2018-05-21T01:55:54.003Z,16.71
2018-05-21T01:58:22.777Z,17.35
2018-05-21T02:00:51.919Z,17.69
2018-05-21T02:03:21.425Z,17.68
2018-05-21T02:05:51.420Z,17.34
2018-05-21T02:08:20.245Z,16.92
2018-05-21T02:10:49.799Z,17.11
2018-05-21T02:13:19.173Z,17.36
2018-05-21T02:15:47.954Z,17.61
2018-05-21T02:18:17.744Z,17.57
2018-05-21T02:20:46.549Z,17.85
2018-05-21T02:23:15.542Z,18.06
2018-05-21T02:25:44.257Z,18.19
2018-05-21T02:28:13.443Z,18.30
2018-05-21T02:30:43.290Z,18.43
2018-05-21T02:33:13.904Z,18.13
2018-05-21T02:35:44.255Z,17.93
2018-05-21T02:38:13.700Z,17.92
2018-05-21T02:40:43.575Z,18.28
2018-05-21T02:43:12.382Z,18.31
2018-05-21T02:45:41.115Z,18.24
2018-05-21T02:48:10.013Z,18.10
2018-05-21T02:50:38.937Z,17.87
2018-05-21T02:53:07.697Z,17.93
2018-05-21T02:55:36.447Z,18.00
2018-05-21T02:58:05.226Z,18.10
2018-05-21T03:00:33.973Z,18.51
2018-05-21T03:03:02.760Z,18.53
2018-05-21T03:05:31.584Z,18.70
2018-05-21T03:08:01.106Z,18.58
2018-05-21T03:10:29.842Z,18.88
2018-05-21T03:12:58.636Z,18.93
2018-05-21T03:15:27.372Z,18.62
2018-05-21T03:17:56.133Z,18.67
2018-05-21T03:20:24.944Z,18.35
2018-05-21T03:22:53.700Z,18.65
2018-05-21T03:25:22.434Z,18.55
2018-05-21T03:27:51.287Z,18.68
2018-05-21T03:30:20.482Z,18.70
2018-05-21T03:32:49.323Z,18.82
2018-05-21T03:35:18.094Z,18.66
2018-05-21T03:37:46.833Z,18.62
2018-05-21T03:40:15.572Z,18.47
2018-05-21T03:42:44.447Z,18.53
2018-05-21T03:45:15.075Z,18.63
2018-05-21T03:47:45.317Z,18.66
2018-05-21T03:50:15.034Z,18.91
2018-05-21T03:52:44.514Z,18.94
2018-05-21T03:55:15.145Z,19.00
2018-05-21T03:57:44.659Z,19.28
2018-05-21T04:00:27.062Z,19.27
2018-05-21T04:16:24.767Z,19.30
2018-05-21T04:18:53.625Z,19.30
2018-05-21T04:21:23.062Z,19.32
2018-05-21T04:23:51.807Z,19.29
2018-05-21T04:26:21.408Z,19.02
2018-05-21T04:28:50.164Z,19.28
2018-05-21T04:31:18.942Z,18.89
2018-05-21T04:33:47.717Z,18.86
2018-05-21T04:36:16.493Z,18.57
2018-05-21T04:38:45.362Z,18.77
2018-05-21T04:41:14.112Z,18.88
2018-05-21T04:43:42.908Z,18.93
2018-05-21T04:46:11.873Z,18.95
2018-05-21T04:48:40.649Z,19.13
2018-05-21T04:51:09.417Z,19.23
2018-05-21T04:53:39.044Z,19.21
2018-05-21T04:56:07.794Z,19.14
2018-05-21T04:58:37.375Z,19.21
2018-05-21T05:01:06.157Z,19.52
2018-05-21T05:03:34.912Z,19.39
2018-05-21T05:06:04.141Z,19.28
2018-05-21T05:08:32.966Z,19.49
2018-05-21T05:11:01.742Z,19.45
2018-05-21T05:13:30.692Z,19.48
2018-05-21T05:15:59.465Z,19.40
2018-05-21T05:18:28.254Z,19.42
2018-05-21T05:20:57.047Z,19.56
2018-05-21T05:23:25.759Z,19.93
2018-05-21T05:25:54.658Z,20.08
2018-05-21T05:28:23.434Z,20.17
2018-05-21T05:30:52.339Z,20.26
2018-05-21T05:33:21.099Z,20.33
2018-05-21T05:35:49.860Z,20.38
2018-05-21T05:38:19.382Z,20.60
2018-05-21T05:40:48.162Z,20.97
2018-05-21T05:43:17.683Z,21.48
2018-05-21T05:45:47.205Z,21.71
2018-05-21T05:48:16.146Z,22.08
2018-05-21T05:50:44.889Z,22.44
2018-05-21T05:53:13.706Z,22.41
2018-05-21T05:55:42.497Z,22.30
2018-05-21T05:58:11.271Z,22.72
2018-05-21T06:00:40.016Z,22.87
2018-05-21T06:03:08.751Z,23.07
2018-05-21T06:05:37.514Z,22.99
2018-05-21T06:08:06.278Z,22.89
2018-05-21T06:10:35.032Z,22.65
2018-05-21T06:13:03.802Z,22.16
2018-05-21T06:15:32.571Z,21.62
2018-05-21T06:18:01.329Z,21.34
2018-05-21T06:20:30.087Z,21.32
2018-05-21T06:22:58.907Z,21.40
2018-05-21T06:25:27.668Z,21.43
2018-05-21T06:27:56.433Z,21.82
2018-05-21T06:30:25.206Z,22.23
2018-05-21T06:32:53.925Z,22.32
2018-05-21T06:35:22.732Z,22.03
2018-05-21T06:37:51.546Z,22.09
2018-05-21T06:40:20.333Z,22.13
2018-05-21T06:42:49.157Z,21.47
2018-05-21T06:45:17.995Z,21.76
2018-05-21T06:47:47.051Z,22.12
2018-05-21T06:50:17.655Z,22.20
2018-05-21T06:52:47.034Z,22.10
2018-05-21T06:55:15.785Z,22.01
2018-05-21T06:57:44.541Z,22.56
2018-05-21T07:00:13.384Z,22.82
2018-05-21T07:02:42.131Z,23.06
2018-05-21T07:05:10.872Z,23.72
2018-05-21T07:07:39.632Z,23.55
2018-05-21T07:10:08.366Z,23.68
2018-05-21T07:12:37.882Z,23.64
2018-05-21T07:15:06.650Z,23.57
2018-05-21T07:17:36.179Z,23.13
2018-05-21T07:20:04.941Z,23.00
2018-05-21T07:22:33.986Z,23.25
2018-05-21T07:25:02.789Z,23.43
2018-05-21T07:27:31.617Z,23.38
2018-05-21T07:30:00.353Z,23.10
2018-05-21T07:32:29.181Z,23.14
2018-05-21T07:34:57.887Z,22.94
2018-05-21T07:37:26.671Z,22.84
2018-05-21T07:39:55.424Z,23.06
2018-05-21T07:42:24.158Z,23.61
2018-05-21T07:44:53.183Z,23.83
2018-05-21T07:47:21.871Z,23.51
2018-05-21T07:49:50.633Z,23.79
2018-05-21T07:52:19.374Z,24.42
2018-05-21T07:54:48.174Z,24.38
2018-05-21T07:57:18.557Z,24.69
2018-05-21T07:59:47.824Z,24.67
2018-05-21T08:02:16.574Z,24.64
2018-05-21T08:04:45.322Z,24.47
2018-05-21T08:07:14.940Z,24.45
2018-05-21T08:09:43.770Z,23.58
2018-05-21T08:12:12.541Z,23.69
2018-05-21T08:14:41.388Z,23.69
2018-05-21T08:17:10.446Z,23.90
2018-05-21T08:19:39.170Z,23.57
2018-05-21T08:22:08.730Z,23.87
2018-05-21T08:24:37.538Z,23.91
2018-05-21T08:27:06.865Z,24.14
2018-05-21T08:29:35.688Z,23.94
2018-05-21T08:32:05.184Z,23.85
2018-05-21T08:34:33.962Z,23.59
2018-05-21T08:37:03.512Z,23.89
2018-05-21T08:39:32.300Z,23.83
2018-05-21T08:42:01.116Z,23.80
2018-05-21T08:44:29.898Z,23.75
2018-05-21T08:46:58.643Z,23.83
2018-05-21T08:49:27.510Z,23.80
2018-05-21T08:51:57.044Z,23.89
2018-05-21T08:54:25.778Z,23.79
2018-05-21T08:56:55.328Z,23.73
2018-05-21T08:59:24.551Z,23.64
2018-05-21T09:01:53.272Z,23.68
2018-05-21T09:04:22.013Z,23.98
2018-05-21T09:06:50.785Z,23.97
2018-05-21T09:09:19.517Z,23.99
2018-05-21T09:11:48.727Z,24.28
2018-05-21T09:14:18.679Z,24.39
2018-05-21T09:16:47.595Z,24.52
2018-05-21T09:19:18.126Z,24.48
2018-05-21T09:21:46.876Z,24.31
2018-05-21T09:24:15.666Z,24.38
2018-05-21T09:26:44.673Z,24.75
2018-05-21T09:29:13.409Z,24.91
2018-05-21T09:31:42.412Z,24.65
2018-05-21T09:34:11.148Z,24.72
2018-05-21T09:36:40.683Z,24.87
2018-05-21T09:39:09.429Z,25.21
2018-05-21T09:41:38.356Z,24.76
2018-05-21T09:44:07.107Z,24.99
2018-05-21T09:46:35.942Z,25.64
2018-05-21T09:49:04.725Z,25.96
2018-05-21T09:51:33.578Z,26.02
2018-05-21T09:54:02.406Z,26.00
2018-05-21T09:56:31.194Z,25.91
2018-05-21T09:59:00.062Z,25.77
2018-05-21T10:01:28.847Z,25.68
2018-05-21T10:03:58.545Z,25.27
2018-05-21T10:06:27.301Z,25.10
2018-05-21T10:08:56.144Z,25.42
2018-05-21T10:11:25.669Z,24.59
2018-05-21T10:14:00.156Z,25.56
2018-05-21T10:16:28.899Z,26.08
2018-05-21T10:18:57.721Z,26.21
2018-05-21T10:21:26.507Z,26.37
2018-05-21T10:23:55.334Z,26.00
2018-05-21T10:26:24.124Z,26.39
2018-05-21T10:28:53.642Z,26.79
2018-05-21T10:31:22.480Z,27.06
2018-05-21T10:33:51.327Z,26.92
2018-05-21T10:36:20.080Z,26.35
2018-05-21T10:38:49.206Z,26.20
2018-05-21T10:41:18.066Z,26.51
2018-05-21T10:43:46.913Z,26.95
2018-05-21T10:46:15.723Z,27.70
2018-05-21T10:48:44.475Z,27.24
2018-05-21T10:51:14.001Z,27.26
2018-05-21T10:53:42.797Z,27.16
2018-05-21T10:56:11.625Z,27.02
2018-05-21T10:58:41.108Z,26.38
2018-05-21T11:01:10.638Z,25.86
2018-05-21T11:03:39.421Z,26.98
2018-05-21T11:06:08.162Z,27.61
2018-05-21T11:08:37.797Z,27.80
2018-05-21T11:11:06.712Z,28.38
2018-05-21T11:13:35.468Z,28.13
2018-05-21T11:16:04.253Z,27.49
2018-05-21T11:18:33.057Z,27.76
2018-05-21T11:21:01.786Z,27.92
2018-05-21T11:23:31.322Z,28.16
2018-05-21T11:26:00.060Z,27.88
2018-05-21T11:28:29.199Z,27.93
2018-05-21T11:30:58.371Z,27.35
2018-05-21T11:33:27.155Z,27.54
2018-05-21T11:35:55.885Z,27.60
2018-05-21T11:38:24.710Z,27.69
2018-05-21T11:40:53.441Z,28.02
2018-05-21T11:43:22.942Z,27.18
2018-05-21T11:45:52.485Z,26.03
2018-05-21T11:48:21.252Z,25.99
2018-05-21T11:50:50.018Z,25.78
2018-05-21T11:53:18.762Z,25.51
2018-05-21T11:55:47.538Z,24.88
2018-05-21T11:58:16.328Z,24.88
2018-05-21T12:00:45.140Z,24.91
2018-05-21T12:03:13.924Z,25.27
2018-05-21T12:05:42.759Z,26.12
2018-05-21T12:08:11.531Z,26.18
2018-05-21T12:10:40.656Z,26.28
2018-05-21T12:13:09.421Z,26.38
2018-05-21T12:15:38.232Z,26.62
2018-05-21T12:18:06.983Z,27.55
2018-05-21T12:20:37.299Z,27.62
2018-05-21T12:23:06.121Z,28.02
2018-05-21T12:25:37.540Z,28.87
2018-05-21T12:28:06.919Z,28.12
2018-05-21T12:30:37.239Z,27.94
2018-05-21T12:33:07.753Z,27.04
2018-05-21T12:35:37.401Z,27.18
2018-05-21T12:38:07.219Z,26.89
2018-05-21T12:40:37.242Z,26.74
2018-05-21T12:43:11.988Z,26.53
2018-05-21T12:45:40.977Z,26.53
2018-05-21T12:48:12.574Z,26.36
2018-05-21T12:50:43.113Z,25.70
2018-05-21T12:53:12.529Z,25.58
2018-05-21T12:55:41.417Z,25.38
2018-05-21T12:58:12.475Z,25.73
2018-05-21T13:00:43.324Z,26.15
2018-05-21T13:03:14.479Z,26.36
2018-05-21T13:05:43.614Z,26.34
2018-05-21T13:08:16.453Z,26.01
2018-05-21T13:10:45.237Z,26.01
2018-05-21T13:13:15.389Z,25.27
2018-05-21T13:15:44.825Z,25.11
2018-05-21T13:18:13.761Z,25.60
2018-05-21T13:20:46.209Z,25.74
2018-05-21T13:23:15.375Z,25.73
2018-05-21T13:25:45.441Z,25.46
2018-05-21T13:28:14.952Z,25.39
2018-05-21T13:30:44.353Z,25.55
2018-05-21T13:33:13.798Z,25.85
2018-05-21T13:35:45.004Z,26.03
2018-05-21T13:38:15.629Z,26.19
2018-05-21T13:40:46.633Z,26.45
2018-05-21T13:43:18.867Z,26.89
2018-05-21T13:45:49.582Z,26.92
2018-05-21T13:48:21.065Z,26.97
2018-05-21T13:50:50.358Z,26.91
2018-05-21T13:53:19.605Z,26.81
2018-05-21T13:55:49.705Z,26.84
2018-05-21T13:58:18.904Z,26.82
2018-05-21T14:00:50.082Z,26.87
2018-05-21T14:03:27.282Z,26.56
2018-05-21T14:05:57.509Z,26.36
2018-05-21T14:08:28.915Z,25.96
2018-05-21T14:10:58.141Z,26.02
2018-05-21T14:13:30.391Z,25.88
2018-05-21T14:15:59.593Z,25.86
2018-05-21T14:18:29.340Z,25.63
2018-05-21T14:20:59.761Z,25.07
2018-05-21T14:23:29.652Z,25.08
2018-05-21T14:26:00.159Z,25.17
2018-05-21T14:28:30.873Z,24.77
2018-05-21T14:31:02.565Z,24.41
2018-05-21T14:33:35.542Z,24.25
2018-05-21T14:36:07.038Z,24.66
2018-05-21T14:38:36.549Z,24.79
2018-05-21T14:41:08.357Z,24.80
2018-05-21T14:43:37.997Z,24.65
2018-05-21T14:46:07.909Z,24.74
2018-05-21T14:48:42.247Z,25.50
2018-05-21T14:51:12.269Z,26.14
2018-05-21T14:53:49.617Z,26.29
2018-05-21T14:56:21.251Z,25.75
2018-05-21T14:58:51.287Z,26.27
2018-05-21T15:01:21.580Z,26.22
2018-05-21T15:03:50.823Z,26.41
2018-05-21T15:06:20.101Z,27.06
2018-05-21T15:08:50.230Z,27.27
2018-05-21T15:11:19.451Z,27.45
2018-05-21T15:13:51.003Z,27.06
2018-05-21T15:16:20.855Z,27.01
2018-05-21T15:18:49.759Z,27.47
2018-05-21T15:21:23.195Z,27.26
2018-05-21T15:23:53.562Z,27.32
2018-05-21T15:26:23.515Z,27.06
2018-05-21T15:28:57.203Z,27.32
2018-05-21T15:31:26.667Z,27.56
2018-05-21T15:33:56.745Z,27.04
2018-05-21T15:36:40.934Z,26.57
2018-05-21T15:39:12.647Z,25.56
2018-05-21T15:41:44.144Z,24.62
2018-05-21T15:47:28.183Z,23.58
2018-05-21T15:55:45.085Z,23.05
2018-05-21T15:58:14.122Z,22.80
2018-05-21T16:00:43.032Z,22.79
2018-05-21T16:03:13.619Z,23.00
2018-05-21T16:05:42.390Z,23.26
2018-05-21T16:08:11.150Z,23.38
2018-05-21T16:10:39.939Z,23.34
2018-05-21T16:13:08.722Z,23.41
2018-05-21T16:15:37.529Z,23.38
2018-05-21T16:18:07.037Z,23.25
2018-05-21T16:20:46.409Z,23.34
2018-05-21T16:23:17.495Z,23.30
2018-05-21T16:25:47.296Z,23.41
2018-05-21T16:28:17.200Z,23.50
2018-05-21T16:30:50.637Z,23.48
2018-05-21T16:33:20.920Z,23.53
2018-05-21T16:35:55.413Z,23.60
2018-05-21T16:38:28.520Z,23.47
2018-05-21T16:40:58.459Z,23.22
2018-05-21T16:43:28.659Z,23.10
2018-05-21T16:45:59.225Z,23.13
2018-05-21T16:48:29.671Z,23.25
2018-05-21T16:51:05.783Z,23.28
2018-05-21T16:53:39.220Z,23.36
2018-05-21T16:56:09.550Z,23.69
2018-05-21T16:58:42.790Z,24.28
2018-05-21T17:01:14.153Z,24.74
2018-05-21T17:03:46.029Z,24.66
2018-05-21T17:08:54.960Z,24.68
2018-05-21T17:11:28.738Z,25.68
2018-05-21T17:14:05.186Z,25.71
2018-05-21T17:16:35.507Z,24.96
2018-05-21T17:19:06.566Z,24.49
2018-05-21T17:21:35.823Z,23.93
2018-05-21T17:24:06.647Z,23.63
2018-05-21T17:26:40.707Z,23.72
2018-05-21T17:29:10.853Z,23.74
2018-05-21T17:31:41.932Z,23.69
2018-05-21T17:34:20.047Z,23.64
2018-05-21T17:36:58.885Z,23.64
2018-05-21T17:39:30.176Z,23.57
2018-05-21T17:42:00.614Z,23.48
2018-05-21T17:44:33.244Z,23.25
2018-05-21T17:47:04.453Z,23.01
2018-05-21T17:49:36.310Z,22.71
2018-05-21T17:52:06.337Z,22.71
2018-05-21T17:54:35.321Z,22.81
2018-05-21T17:57:10.984Z,22.85
2018-05-21T17:59:40.825Z,22.88
2018-05-21T18:04:51.136Z,22.85
2018-05-21T18:07:21.958Z,22.81
2018-05-21T18:09:51.005Z,22.69
2018-05-21T18:12:21.892Z,22.49
2018-05-21T18:14:56.729Z,22.28
2018-05-21T18:17:27.203Z,22.16
2018-05-21T18:19:56.566Z,22.35
2018-05-21T18:22:25.301Z,22.53
2018-05-21T18:24:54.940Z,22.62
2018-05-21T18:27:35.708Z,22.75
2018-05-21T18:30:09.904Z,22.67
2018-05-21T18:32:48.414Z,22.35
2018-05-21T18:35:25.629Z,22.01
2018-05-21T18:37:56.048Z,21.94
2018-05-21T18:40:26.569Z,21.92
2018-05-21T18:43:05.669Z,22.08
2018-05-21T18:45:39.086Z,22.22
2018-05-21T18:48:12.886Z,22.11
2018-05-21T18:50:48.134Z,21.94
2018-05-21T18:53:19.786Z,21.86
2018-05-21T18:55:59.940Z,21.95
2018-05-21T18:58:39.527Z,21.98
2018-05-21T19:01:16.750Z,21.88
2018-05-21T19:03:48.331Z,21.64
2018-05-21T19:06:20.160Z,21.58
2018-05-21T19:08:59.179Z,21.41
2018-05-21T19:11:31.196Z,20.91
2018-05-21T19:14:04.753Z,20.94
2018-05-21T19:16:37.933Z,21.05
2018-05-21T19:19:16.483Z,21.21
2018-05-21T19:21:45.606Z,21.33
2018-05-21T19:24:14.395Z,21.33
2018-05-21T19:26:43.150Z,21.31
2018-05-21T19:29:11.907Z,21.28
2018-05-21T19:31:40.654Z,21.19
2018-05-21T19:34:10.542Z,21.03
2018-05-21T19:36:39.305Z,20.95
2018-05-21T19:39:08.045Z,20.92
2018-05-21T19:41:37.682Z,20.87
2018-05-21T19:44:06.439Z,20.72
2018-05-21T19:46:35.939Z,20.57
2018-05-21T19:49:05.399Z,20.63
2018-05-21T19:51:34.170Z,20.57
2018-05-21T19:54:02.904Z,20.59
2018-05-21T19:56:31.678Z,20.50
2018-05-21T19:59:00.444Z,20.55
2018-05-21T20:01:29.220Z,20.62
2018-05-21T20:03:58.010Z,20.49
2018-05-21T20:06:26.802Z,20.51
2018-05-21T20:08:55.545Z,20.63
2018-05-21T20:11:24.286Z,20.45
2018-05-21T20:13:53.068Z,20.41
2018-05-21T20:16:21.833Z,20.32
2018-05-21T20:18:50.626Z,20.39
2018-05-21T20:21:19.365Z,20.37
2018-05-21T20:23:48.917Z,20.35
2018-05-21T20:26:17.654Z,19.94
2018-05-21T20:28:46.507Z,19.78
2018-05-21T20:31:16.084Z,19.80
2018-05-21T20:33:44.817Z,19.83
2018-05-21T20:36:13.609Z,19.70
2018-05-21T20:38:42.373Z,19.58
2018-05-21T20:41:11.096Z,19.58
2018-05-21T20:43:39.963Z,19.83
2018-05-21T20:46:08.722Z,19.88
2018-05-21T20:48:37.458Z,19.60
2018-05-21T20:51:06.243Z,19.53
2018-05-21T20:53:34.965Z,19.52
2018-05-21T20:56:03.727Z,19.32
2018-05-21T20:58:32.468Z,19.30
2018-05-21T21:01:01.633Z,19.37
2018-05-21T21:03:30.392Z,19.42
2018-05-21T21:05:59.163Z,19.43
2018-05-21T21:08:27.930Z,19.43
2018-05-21T21:10:56.682Z,19.37
2018-05-21T21:13:25.429Z,19.30
2018-05-21T21:15:54.192Z,19.34
2018-05-21T21:18:23.220Z,19.26
2018-05-21T21:20:51.976Z,19.07
2018-05-21T21:23:20.810Z,18.88
2018-05-21T21:25:49.475Z,18.91
2018-05-21T21:28:18.270Z,18.99
2018-05-21T21:30:47.035Z,18.83
2018-05-21T21:33:16.572Z,18.87
2018-05-21T21:35:45.413Z,18.91
2018-05-21T21:38:14.136Z,18.99
2018-05-21T21:40:42.887Z,18.95
2018-05-21T21:43:12.453Z,18.65
2018-05-21T21:45:41.214Z,18.62
2018-05-21T21:48:10.012Z,18.67
2018-05-21T21:50:38.813Z,18.66
2018-05-21T21:53:07.557Z,18.73
2018-05-21T21:55:37.070Z,18.76
2018-05-21T21:58:07.232Z,18.42
2018-05-21T22:00:35.995Z,18.27
2018-05-21T22:03:04.785Z,18.40
2018-05-21T22:05:34.323Z,18.37
2018-05-21T22:08:03.104Z,18.39
2018-05-21T22:10:31.853Z,18.25
2018-05-21T22:13:00.691Z,18.28
2018-05-21T22:15:29.509Z,18.33
2018-05-21T22:17:58.243Z,18.44
2018-05-21T22:20:27.037Z,18.44
2018-05-21T22:22:55.788Z,18.42
2018-05-21T22:25:24.555Z,18.37
2018-05-21T22:27:53.375Z,18.12
2018-05-21T22:30:22.107Z,18.02
2018-05-21T22:32:50.875Z,17.77
2018-05-21T22:35:19.734Z,17.61
2018-05-21T22:37:49.248Z,17.78
2018-05-21T22:40:18.009Z,17.83
2018-05-21T22:42:47.870Z,17.81
2018-05-21T22:45:16.737Z,17.76
2018-05-21T22:47:45.497Z,17.72
2018-05-21T22:50:14.297Z,17.74
2018-05-21T22:52:43.828Z,17.65
2018-05-21T22:55:12.592Z,17.77
2018-05-21T22:57:41.381Z,17.56
2018-05-21T23:00:10.972Z,17.58
2018-05-21T23:02:39.758Z,17.65
2018-05-21T23:05:09.338Z,17.59
2018-05-21T23:07:38.137Z,17.51
2018-05-21T23:10:06.876Z,17.42
2018-05-21T23:12:35.667Z,17.54
2018-05-21T23:15:04.437Z,17.64
2018-05-21T23:17:33.970Z,17.64
2018-05-21T23:20:02.753Z,17.65
2018-05-21T23:22:44.043Z,17.65
2018-05-21T23:25:12.783Z,17.45
2018-05-21T23:27:41.517Z,17.35
2018-05-21T23:30:10.349Z,17.40
2018-05-21T23:35:14.845Z,17.21
2018-05-21T23:37:43.699Z,17.36
2018-05-21T23:40:13.228Z,17.43
2018-05-21T23:42:42.733Z,17.51
2018-05-21T23:45:11.557Z,17.41
2018-05-21T23:47:40.309Z,17.21
2018-05-21T23:50:09.097Z,17.28
2018-05-21T23:52:38.945Z,17.31
2018-05-21T23:55:07.653Z,17.29
2018-05-21T23:57:36.427Z,17.21
